Trutnov, Czech Republic
Current Conditions -  °F | °C
As of 3:00 PM on Tuesday 21 Oct 2014 (Local Time) from LKPD Reporting Station
Broken Clouds Broken Clouds  
Wind Chill: 63°   Ceiling: 4000
Heat Index: 63°   Visibility: 6mi
Dew Point: 45°   Wind: 14mph
Humidity: 52%   Direction: 220°SW
Pressure: 29.77"   Gusts: NA
Location:  50.57°N, 15.9°E
Report Text: LKPD 211300Z 22012KT 180V270 9999 BKN040 17/07 Q1008 NOSIG
Loading
Personal Weather Stations






























Interactive Weather Map
Tropical Storm Tracking
New forecast layout! Learn more

10-Day Weather Forecast

Advertisements
Track Severe Weather on mobile